EZS891C LFBD-LFSB
Flight info
| Callsign | EZS891C |
|---|---|
| Flight time | N/A |
| Altitude | 33000 |
| Route | OBLOC DCT SECHE DCT NARAK/N0458F340 DCT DITEV DCT MEN DCT NINUN DCT LATAM DCT ETREK/N0470F300 DCT LTP DCT SOPLO DCT OMASI DCT KINNI DCT LAMUR DCT KORED N871 KONOL/N0398F180 Z59 LUMEL |
| Aircraft | A320/M-SDE3FGHIRWY/LB1 |
Departure
| Time | 2026-04-27 03:24 |
|---|---|
| Airport | Bordeaux–Mérignac Airport (LFBD) |
Arrival
| Time | N/A |
|---|---|
| Airport | EuroAirport Basel–Mulhouse–Freiburg (LFSB) |
| Time | Latitude | Longitude | Altitude | Speed | Heading |
|---|---|---|---|---|---|
| 2026-04-27 02:48 | 44.83165 | -0.70419 | 167 ft | 0 kts | 161° |
| 2026-04-27 03:13 | 44.83176 | -0.70424 | 167 ft | 4 kts | 160° |
| 2026-04-27 03:13 | 44.83202 | -0.70437 | 167 ft | 4 kts | 165° |
| 2026-04-27 03:13 | 44.83228 | -0.70444 | 166 ft | 4 kts | 178° |
| 2026-04-27 03:13 | 44.83243 | -0.70445 | 166 ft | 0 kts | 179° |
| 2026-04-27 03:18 | 44.83211 | -0.70487 | 167 ft | 14 kts | 228° |
| 2026-04-27 03:18 | 44.83107 | -0.70619 | 168 ft | 23 kts | 222° |
| 2026-04-27 03:18 | 44.83003 | -0.70761 | 169 ft | 19 kts | 219° |
| 2026-04-27 03:19 | 44.82916 | -0.70781 | 170 ft | 11 kts | 132° |
| 2026-04-27 03:19 | 44.82889 | -0.70691 | 170 ft | 9 kts | 107° |
| 2026-04-27 03:19 | 44.82870 | -0.70605 | 170 ft | 10 kts | 107° |
| 2026-04-27 03:19 | 44.82847 | -0.70498 | 170 ft | 14 kts | 106° |
| 2026-04-27 03:20 | 44.82812 | -0.70328 | 170 ft | 22 kts | 106° |
| 2026-04-27 03:20 | 44.82764 | -0.70099 | 169 ft | 22 kts | 106° |
| 2026-04-27 03:20 | 44.82720 | -0.69951 | 169 ft | 12 kts | 147° |
| 2026-04-27 03:20 | 44.82682 | -0.69949 | 170 ft | 0 kts | 192° |
| 2026-04-27 03:22 | 44.82648 | -0.69960 | 171 ft | 12 kts | 194° |
| 2026-04-27 03:22 | 44.82561 | -0.70020 | 171 ft | 14 kts | 242° |
| 2026-04-27 03:22 | 44.82564 | -0.70100 | 172 ft | 0 kts | 287° |
| 2026-04-27 03:22 | 44.82565 | -0.70104 | 172 ft | 4 kts | 287° |
| 2026-04-27 03:23 | 44.82639 | -0.70456 | 173 ft | 76 kts | 287° |
| 2026-04-27 03:23 | 44.82853 | -0.71483 | 169 ft | 139 kts | 286° |
| 2026-04-27 03:23 | 44.83156 | -0.73007 | 305 ft | 176 kts | 285° |
| 2026-04-27 03:23 | 44.83358 | -0.74139 | 641 ft | 183 kts | 280° |
| 2026-04-27 03:24 | 44.83167 | -0.75861 | 1381 ft | 184 kts | 236° |
| 2026-04-27 03:24 | 44.82096 | -0.76912 | 1784 ft | 202 kts | 189° |
| 2026-04-27 03:24 | 44.80115 | -0.76636 | 2268 ft | 233 kts | 164° |
| 2026-04-27 03:24 | 44.79026 | -0.76201 | 2582 ft | 250 kts | 162° |
| 2026-04-27 03:25 | 44.77312 | -0.75463 | 3278 ft | 262 kts | 162° |
| 2026-04-27 03:25 | 44.75546 | -0.74733 | 4204 ft | 266 kts | 163° |
| 2026-04-27 03:25 | 44.73754 | -0.74051 | 5150 ft | 269 kts | 165° |
| 2026-04-27 03:25 | 44.71990 | -0.73144 | 6065 ft | 272 kts | 149° |
| 2026-04-27 03:26 | 44.70557 | -0.71406 | 6946 ft | 275 kts | 127° |
| 2026-04-27 03:26 | 44.69681 | -0.69013 | 7769 ft | 280 kts | 105° |
| 2026-04-27 03:26 | 44.69448 | -0.66286 | 8602 ft | 284 kts | 92° |
| 2026-04-27 03:26 | 44.69359 | -0.63494 | 9453 ft | 288 kts | 92° |
| 2026-04-27 03:27 | 44.69273 | -0.60668 | 10269 ft | 292 kts | 92° |
| 2026-04-27 03:27 | 44.69182 | -0.57754 | 10830 ft | 306 kts | 92° |
| 2026-04-27 03:27 | 44.69085 | -0.54668 | 11083 ft | 330 kts | 92° |
| 2026-04-27 03:27 | 44.68976 | -0.51315 | 11283 ft | 353 kts | 92° |
| 2026-04-27 03:28 | 44.68857 | -0.47765 | 11570 ft | 371 kts | 92° |
| 2026-04-27 03:28 | 44.68730 | -0.44108 | 12173 ft | 378 kts | 92° |
| 2026-04-27 03:28 | 44.68596 | -0.40397 | 12840 ft | 383 kts | 92° |
| 2026-04-27 03:28 | 44.68459 | -0.36640 | 13526 ft | 387 kts | 93° |
| 2026-04-27 03:29 | 44.68321 | -0.32845 | 14183 ft | 391 kts | 93° |
| 2026-04-27 03:29 | 44.68183 | -0.29008 | 14793 ft | 395 kts | 93° |
| 2026-04-27 03:29 | 44.68041 | -0.25135 | 15417 ft | 398 kts | 93° |
| 2026-04-27 03:29 | 44.67899 | -0.21239 | 16034 ft | 401 kts | 93° |
| 2026-04-27 03:30 | 44.67636 | -0.17322 | 16641 ft | 404 kts | 100° |
| 2026-04-27 03:30 | 44.66931 | -0.13497 | 17251 ft | 407 kts | 110° |
| 2026-04-27 03:30 | 44.65784 | -0.09846 | 17860 ft | 410 kts | 117° |
| 2026-04-27 03:30 | 44.64505 | -0.06251 | 18459 ft | 413 kts | 117° |
| 2026-04-27 03:31 | 44.63213 | -0.02618 | 18967 ft | 417 kts | 117° |
| 2026-04-27 03:31 | 44.61914 | 0.01028 | 19460 ft | 420 kts | 117° |
| 2026-04-27 03:31 | 44.60604 | 0.04715 | 19935 ft | 423 kts | 117° |
| 2026-04-27 03:31 | 44.59287 | 0.08424 | 20420 ft | 426 kts | 117° |
| 2026-04-27 03:32 | 44.57965 | 0.12156 | 20889 ft | 429 kts | 117° |
| 2026-04-27 03:32 | 44.56634 | 0.15912 | 21339 ft | 432 kts | 117° |
| 2026-04-27 03:32 | 44.55289 | 0.19700 | 21789 ft | 435 kts | 117° |
| 2026-04-27 03:32 | 44.53934 | 0.23493 | 22223 ft | 437 kts | 117° |
| 2026-04-27 03:33 | 44.52563 | 0.27318 | 22639 ft | 440 kts | 117° |
| 2026-04-27 03:33 | 44.51183 | 0.31163 | 23047 ft | 443 kts | 117° |
| 2026-04-27 03:33 | 44.49797 | 0.35020 | 23454 ft | 445 kts | 118° |
| 2026-04-27 03:33 | 44.48395 | 0.38914 | 23825 ft | 448 kts | 118° |
| 2026-04-27 03:34 | 44.46986 | 0.42817 | 24154 ft | 450 kts | 118° |
| 2026-04-27 03:34 | 44.45573 | 0.46736 | 24483 ft | 452 kts | 117° |
| 2026-04-27 03:34 | 44.44312 | 0.50783 | 24802 ft | 456 kts | 110° |
| 2026-04-27 03:34 | 44.43480 | 0.55077 | 25115 ft | 459 kts | 101° |
| 2026-04-27 03:35 | 44.42984 | 0.59497 | 25421 ft | 461 kts | 99° |
| 2026-04-27 03:35 | 44.42498 | 0.63937 | 25716 ft | 463 kts | 99° |
| 2026-04-27 03:35 | 44.41998 | 0.68398 | 26003 ft | 465 kts | 99° |
| 2026-04-27 03:35 | 44.41488 | 0.72871 | 26278 ft | 466 kts | 99° |
| 2026-04-27 03:36 | 44.40973 | 0.77356 | 26554 ft | 468 kts | 99° |
| 2026-04-27 03:36 | 44.40457 | 0.81863 | 26814 ft | 470 kts | 99° |
| 2026-04-27 03:36 | 44.39941 | 0.86385 | 27065 ft | 472 kts | 99° |
| 2026-04-27 03:36 | 44.39426 | 0.90927 | 27308 ft | 474 kts | 99° |
| 2026-04-27 03:37 | 44.38908 | 0.95486 | 27554 ft | 475 kts | 99° |
| 2026-04-27 03:37 | 44.38387 | 1.00042 | 27871 ft | 474 kts | 99° |
| 2026-04-27 03:37 | 44.37867 | 1.04585 | 28207 ft | 473 kts | 99° |
| 2026-04-27 03:37 | 44.37345 | 1.09128 | 28550 ft | 473 kts | 99° |
| 2026-04-27 03:38 | 44.36822 | 1.13655 | 28887 ft | 472 kts | 99° |
| 2026-04-27 03:38 | 44.36296 | 1.18180 | 29229 ft | 471 kts | 99° |
| 2026-04-27 03:38 | 44.35767 | 1.22686 | 29563 ft | 471 kts | 99° |
| 2026-04-27 03:38 | 44.35236 | 1.27207 | 29897 ft | 470 kts | 99° |
| 2026-04-27 03:39 | 44.34705 | 1.31707 | 30251 ft | 470 kts | 99° |
| 2026-04-27 03:39 | 44.34171 | 1.36215 | 30548 ft | 469 kts | 99° |
| 2026-04-27 03:39 | 44.33640 | 1.40699 | 30852 ft | 468 kts | 99° |
| 2026-04-27 03:39 | 44.33104 | 1.45188 | 31165 ft | 468 kts | 99° |
| 2026-04-27 03:40 | 44.32575 | 1.49605 | 31449 ft | 467 kts | 99° |
| 2026-04-27 03:40 | 44.32033 | 1.54137 | 31753 ft | 466 kts | 99° |
| 2026-04-27 03:40 | 44.31500 | 1.58597 | 32050 ft | 466 kts | 99° |
| 2026-04-27 03:40 | 44.30965 | 1.63054 | 32290 ft | 466 kts | 99° |
| 2026-04-27 03:41 | 44.30433 | 1.67464 | 32552 ft | 466 kts | 99° |
| 2026-04-27 03:41 | 44.30019 | 1.71953 | 32827 ft | 465 kts | 92° |
| 2026-04-27 03:41 | 44.30046 | 1.76460 | 33077 ft | 464 kts | 84° |
| 2026-04-27 03:42 | 44.31280 | 1.85331 | 33149 ft | 462 kts | 75° |
| 2026-04-27 03:42 | 44.32761 | 1.94058 | 33151 ft | 462 kts | 75° |
| 2026-04-27 03:43 | 44.34215 | 2.02794 | 33152 ft | 462 kts | 76° |
| 2026-04-27 03:43 | 44.35651 | 2.11528 | 33156 ft | 462 kts | 76° |
| 2026-04-27 03:44 | 44.37093 | 2.20281 | 33160 ft | 461 kts | 76° |
| 2026-04-27 03:44 | 44.38529 | 2.29019 | 33168 ft | 462 kts | 76° |
| 2026-04-27 03:45 | 44.39951 | 2.37760 | 33174 ft | 461 kts | 76° |
| 2026-04-27 03:45 | 44.41371 | 2.46526 | 33161 ft | 461 kts | 76° |
| 2026-04-27 03:46 | 44.42786 | 2.55275 | 33161 ft | 462 kts | 76° |
| 2026-04-27 03:46 | 44.44198 | 2.64045 | 33164 ft | 462 kts | 76° |
| 2026-04-27 03:47 | 44.45605 | 2.72808 | 33160 ft | 462 kts | 76° |
| 2026-04-27 03:47 | 44.46993 | 2.81585 | 33173 ft | 462 kts | 76° |
| 2026-04-27 03:48 | 44.48767 | 2.90178 | 33172 ft | 458 kts | 64° |
| 2026-04-27 03:48 | 44.51992 | 2.97791 | 33187 ft | 455 kts | 53° |
| 2026-04-27 03:49 | 44.55546 | 3.05152 | 33184 ft | 455 kts | 54° |
| 2026-04-27 03:49 | 44.59056 | 3.12488 | 33193 ft | 455 kts | 54° |
| 2026-04-27 03:50 | 44.62490 | 3.19938 | 33200 ft | 456 kts | 57° |
| 2026-04-27 03:50 | 44.65610 | 3.27695 | 33198 ft | 456 kts | 59° |
| 2026-04-27 03:51 | 44.68615 | 3.35550 | 33207 ft | 456 kts | 59° |
| 2026-04-27 03:51 | 44.71674 | 3.43359 | 33210 ft | 455 kts | 58° |
| 2026-04-27 03:52 | 44.74784 | 3.51115 | 33208 ft | 455 kts | 58° |
| 2026-04-27 03:52 | 44.77890 | 3.58877 | 33208 ft | 455 kts | 58° |
| 2026-04-27 03:53 | 44.80973 | 3.66641 | 33209 ft | 454 kts | 58° |
| 2026-04-27 03:53 | 44.84037 | 3.74413 | 33211 ft | 454 kts | 58° |
| 2026-04-27 03:54 | 44.87100 | 3.82197 | 33211 ft | 454 kts | 58° |
| 2026-04-27 03:54 | 44.90161 | 3.89986 | 33210 ft | 453 kts | 58° |
| 2026-04-27 03:55 | 44.93190 | 3.97722 | 33205 ft | 453 kts | 58° |
| 2026-04-27 03:55 | 44.96227 | 4.05511 | 33208 ft | 453 kts | 58° |
| 2026-04-27 03:56 | 44.99265 | 4.13294 | 33206 ft | 452 kts | 58° |
| 2026-04-27 03:56 | 45.02293 | 4.21086 | 33191 ft | 452 kts | 59° |
| 2026-04-27 03:57 | 45.05316 | 4.28890 | 33197 ft | 452 kts | 58° |
| 2026-04-27 03:57 | 45.08333 | 4.36692 | 33190 ft | 452 kts | 59° |
| 2026-04-27 03:58 | 45.11345 | 4.44507 | 33181 ft | 452 kts | 59° |
| 2026-04-27 03:58 | 45.14350 | 4.52318 | 33182 ft | 452 kts | 59° |
| 2026-04-27 03:59 | 45.17342 | 4.60151 | 33179 ft | 452 kts | 59° |
| 2026-04-27 03:59 | 45.20330 | 4.67995 | 33175 ft | 452 kts | 59° |
| 2026-04-27 04:00 | 45.23322 | 4.75832 | 33173 ft | 452 kts | 59° |
| 2026-04-27 04:00 | 45.26312 | 4.83685 | 33414 ft | 452 kts | 59° |
| 2026-04-27 04:00 | 45.27803 | 4.87619 | 33720 ft | 451 kts | 59° |
| 2026-04-27 04:01 | 45.29286 | 4.91540 | 34017 ft | 450 kts | 59° |
| 2026-04-27 04:01 | 45.30767 | 4.95455 | 34154 ft | 451 kts | 59° |
| 2026-04-27 04:01 | 45.32253 | 4.99394 | 34168 ft | 452 kts | 59° |
| 2026-04-27 04:02 | 45.35211 | 5.07261 | 34163 ft | 452 kts | 59° |
| 2026-04-27 04:02 | 45.38173 | 5.15152 | 34165 ft | 452 kts | 59° |
| 2026-04-27 04:03 | 45.41128 | 5.23048 | 34169 ft | 452 kts | 59° |
| 2026-04-27 04:03 | 45.44063 | 5.30897 | 34166 ft | 452 kts | 59° |
| 2026-04-27 04:04 | 45.47021 | 5.38817 | 34168 ft | 453 kts | 59° |
| 2026-04-27 04:04 | 45.50646 | 5.46028 | 34169 ft | 446 kts | 43° |
| 2026-04-27 04:05 | 45.55231 | 5.51958 | 34168 ft | 445 kts | 39° |
| 2026-04-27 04:05 | 45.59105 | 5.56895 | 34186 ft | 445 kts | 39° |
| 2026-04-27 04:06 | 45.63716 | 5.62798 | 34191 ft | 445 kts | 39° |
| 2026-04-27 04:06 | 45.68330 | 5.68718 | 34192 ft | 446 kts | 39° |
| 2026-04-27 04:07 | 45.75243 | 5.77607 | 34192 ft | 446 kts | 39° |
| 2026-04-27 04:07 | 45.79862 | 5.83539 | 34192 ft | 446 kts | 39° |
| 2026-04-27 04:08 | 45.84481 | 5.89482 | 34194 ft | 446 kts | 39° |
| 2026-04-27 04:08 | 45.89090 | 5.95445 | 34195 ft | 446 kts | 39° |
| 2026-04-27 04:09 | 45.93701 | 6.01417 | 34192 ft | 446 kts | 39° |
| 2026-04-27 04:09 | 45.98313 | 6.07390 | 34193 ft | 447 kts | 39° |
| 2026-04-27 04:10 | 46.02925 | 6.13383 | 34188 ft | 447 kts | 39° |
| 2026-04-27 04:10 | 46.07528 | 6.19397 | 34186 ft | 448 kts | 41° |
| 2026-04-27 04:11 | 46.11456 | 6.26415 | 34187 ft | 452 kts | 52° |
| 2026-04-27 04:11 | 46.15067 | 6.33824 | 34187 ft | 452 kts | 52° |
| 2026-04-27 04:12 | 46.18692 | 6.41244 | 34185 ft | 452 kts | 52° |
| 2026-04-27 04:12 | 46.22318 | 6.48671 | 34190 ft | 453 kts | 52° |
| 2026-04-27 04:13 | 46.25934 | 6.56124 | 34184 ft | 453 kts | 52° |
| 2026-04-27 04:13 | 46.29540 | 6.63604 | 34185 ft | 453 kts | 52° |
| 2026-04-27 04:14 | 46.33142 | 6.71092 | 34181 ft | 453 kts | 52° |
| 2026-04-27 04:14 | 46.36739 | 6.78579 | 34164 ft | 454 kts | 52° |
| 2026-04-27 04:15 | 46.40369 | 6.86144 | 34178 ft | 454 kts | 52° |
| 2026-04-27 04:15 | 46.43966 | 6.93661 | 34191 ft | 454 kts | 53° |
| 2026-04-27 04:16 | 46.47558 | 7.01189 | 34181 ft | 454 kts | 53° |
| 2026-04-27 04:16 | 46.51151 | 7.08737 | 34182 ft | 454 kts | 53° |
| 2026-04-27 04:17 | 46.54734 | 7.16283 | 34187 ft | 454 kts | 52° |
| 2026-04-27 04:17 | 46.59000 | 7.22931 | 34185 ft | 448 kts | 35° |
| 2026-04-27 04:18 | 46.64339 | 7.27423 | 34190 ft | 443 kts | 22° |
| 2026-04-27 04:18 | 46.69943 | 7.31180 | 34188 ft | 444 kts | 22° |
| 2026-04-27 04:19 | 46.75551 | 7.34972 | 34184 ft | 444 kts | 22° |
| 2026-04-27 04:19 | 46.81150 | 7.38769 | 34181 ft | 445 kts | 24° |
| 2026-04-27 04:20 | 46.86242 | 7.43977 | 34186 ft | 452 kts | 42° |
| 2026-04-27 04:20 | 46.90297 | 7.51055 | 34188 ft | 455 kts | 49° |
| 2026-04-27 04:21 | 46.94603 | 7.57724 | 34188 ft | 448 kts | 30° |
| 2026-04-27 04:21 | 46.97365 | 7.59720 | 34184 ft | 442 kts | 15° |
| 2026-04-27 04:21 | 47.00357 | 7.60585 | 34184 ft | 437 kts | 0° |
| 2026-04-27 04:22 | 47.03371 | 7.60294 | 34184 ft | 433 kts | 346° |
| 2026-04-27 04:22 | 47.06201 | 7.58887 | 34182 ft | 430 kts | 332° |
| 2026-04-27 04:22 | 47.08683 | 7.56483 | 34202 ft | 428 kts | 319° |
| 2026-04-27 04:22 | 47.10935 | 7.53639 | 34198 ft | 428 kts | 319° |
| 2026-04-27 04:23 | 47.15442 | 7.47889 | 34202 ft | 429 kts | 318° |
| 2026-04-27 04:23 | 47.19945 | 7.42131 | 34198 ft | 430 kts | 318° |
| 2026-04-27 04:24 | 47.24459 | 7.36359 | 34204 ft | 430 kts | 318° |
| 2026-04-27 04:24 | 47.28968 | 7.30573 | 34199 ft | 430 kts | 318° |
| 2026-04-27 04:25 | 47.33486 | 7.24760 | 34207 ft | 430 kts | 318° |
| 2026-04-27 04:25 | 47.37986 | 7.18946 | 34213 ft | 430 kts | 317° |
| 2026-04-27 04:26 | 47.41680 | 7.12095 | 34200 ft | 428 kts | 298° |
| 2026-04-27 04:26 | 47.44171 | 7.04098 | 34204 ft | 428 kts | 294° |
| 2026-04-27 04:27 | 47.46740 | 6.96171 | 34194 ft | 428 kts | 304° |
| 2026-04-27 04:27 | 47.48773 | 6.92978 | 34201 ft | 429 kts | 323° |
| 2026-04-27 04:27 | 47.51417 | 6.90960 | 34196 ft | 431 kts | 341° |
| 2026-04-27 04:28 | 47.57306 | 6.89015 | 34192 ft | 435 kts | 351° |
| 2026-04-27 04:28 | 47.60339 | 6.89141 | 34189 ft | 442 kts | 11° |
| 2026-04-27 04:28 | 47.63173 | 6.90909 | 34189 ft | 448 kts | 32° |
| 2026-04-27 04:29 | 47.65424 | 6.94115 | 34184 ft | 455 kts | 53° |
| 2026-04-27 04:29 | 47.66786 | 6.98373 | 34184 ft | 460 kts | 75° |
| 2026-04-27 04:29 | 47.67056 | 7.03096 | 34177 ft | 464 kts | 95° |
| 2026-04-27 04:29 | 47.66603 | 7.07837 | 34187 ft | 465 kts | 98° |
| 2026-04-27 04:30 | 47.66377 | 7.12587 | 34175 ft | 464 kts | 82° |
| 2026-04-27 04:30 | 47.67211 | 7.17176 | 34182 ft | 458 kts | 60° |
| 2026-04-27 04:30 | 47.69045 | 7.20957 | 34181 ft | 450 kts | 39° |
| 2026-04-27 04:30 | 47.71622 | 7.23468 | 34183 ft | 441 kts | 18° |
| 2026-04-27 04:31 | 47.77530 | 7.25752 | 34177 ft | 442 kts | 17° |
| 2026-04-27 04:31 | 47.80225 | 7.27970 | 34176 ft | 450 kts | 38° |
| 2026-04-27 04:31 | 47.82246 | 7.31544 | 34178 ft | 456 kts | 59° |
| 2026-04-27 04:32 | 47.83275 | 7.35939 | 34222 ft | 446 kts | 81° |
| 2026-04-27 04:32 | 47.83321 | 7.40469 | 34219 ft | 431 kts | 93° |
| 2026-04-27 04:32 | 47.83074 | 7.44843 | 33969 ft | 422 kts | 95° |
| 2026-04-27 04:32 | 47.82642 | 7.49213 | 32773 ft | 436 kts | 103° |
| 2026-04-27 04:33 | 47.81561 | 7.53496 | 31548 ft | 449 kts | 121° |
| 2026-04-27 04:33 | 47.79576 | 7.57120 | 30357 ft | 458 kts | 141° |
| 2026-04-27 04:33 | 47.76867 | 7.59644 | 28984 ft | 463 kts | 159° |
| 2026-04-27 04:33 | 47.73802 | 7.60935 | 27680 ft | 467 kts | 174° |
| 2026-04-27 04:34 | 47.70521 | 7.61008 | 26388 ft | 468 kts | 189° |
| 2026-04-27 04:34 | 47.67387 | 7.59801 | 25170 ft | 466 kts | 205° |
| 2026-04-27 04:34 | 47.64612 | 7.57361 | 23998 ft | 463 kts | 221° |
| 2026-04-27 04:34 | 47.62428 | 7.53887 | 22698 ft | 460 kts | 237° |
| 2026-04-27 04:35 | 47.60789 | 7.49826 | 21424 ft | 460 kts | 243° |
| 2026-04-27 04:35 | 47.59336 | 7.45659 | 20312 ft | 459 kts | 245° |
| 2026-04-27 04:35 | 47.57983 | 7.41362 | 19472 ft | 451 kts | 247° |
| 2026-04-27 04:35 | 47.56728 | 7.37185 | 18642 ft | 447 kts | 248° |
| 2026-04-27 04:36 | 47.55546 | 7.32966 | 17714 ft | 441 kts | 253° |
| 2026-04-27 04:36 | 47.54990 | 7.28551 | 16878 ft | 434 kts | 268° |
| 2026-04-27 04:36 | 47.55164 | 7.24129 | 16062 ft | 428 kts | 281° |
| 2026-04-27 04:36 | 47.56037 | 7.19959 | 15278 ft | 422 kts | 295° |
| 2026-04-27 04:37 | 47.57560 | 7.16292 | 14521 ft | 417 kts | 309° |
| 2026-04-27 04:37 | 47.59633 | 7.13339 | 13761 ft | 413 kts | 323° |
| 2026-04-27 04:37 | 47.62114 | 7.11260 | 12962 ft | 409 kts | 338° |
| 2026-04-27 04:37 | 47.64839 | 7.10155 | 12174 ft | 405 kts | 351° |
| 2026-04-27 04:38 | 47.67643 | 7.10052 | 11397 ft | 402 kts | 5° |
| 2026-04-27 04:38 | 47.70358 | 7.10924 | 10632 ft | 399 kts | 19° |
| 2026-04-27 04:38 | 47.72838 | 7.12710 | 9847 ft | 396 kts | 32° |
| 2026-04-27 04:38 | 47.74947 | 7.15316 | 9022 ft | 392 kts | 46° |
| 2026-04-27 04:39 | 47.76572 | 7.18527 | 8212 ft | 387 kts | 57° |
| 2026-04-27 04:39 | 47.77904 | 7.21980 | 7395 ft | 382 kts | 62° |
| 2026-04-27 04:39 | 47.79073 | 7.25490 | 6590 ft | 377 kts | 64° |
| 2026-04-27 04:39 | 47.80153 | 7.29024 | 5812 ft | 370 kts | 66° |
| 2026-04-27 04:40 | 47.81163 | 7.32430 | 5570 ft | 350 kts | 66° |
| 2026-04-27 04:40 | 47.82126 | 7.35635 | 5512 ft | 326 kts | 65° |
| 2026-04-27 04:40 | 47.82855 | 7.38691 | 5520 ft | 303 kts | 79° |
| 2026-04-27 04:40 | 47.82894 | 7.41708 | 5520 ft | 283 kts | 98° |
| 2026-04-27 04:41 | 47.82318 | 7.44402 | 5522 ft | 265 kts | 116° |
| 2026-04-27 04:41 | 47.81300 | 7.46559 | 5520 ft | 248 kts | 133° |
| 2026-04-27 04:41 | 47.80459 | 7.47651 | 5518 ft | 237 kts | 144° |
| 2026-04-27 04:41 | 47.78540 | 7.49004 | 5522 ft | 227 kts | 165° |
| 2026-04-27 04:42 | 47.77513 | 7.49279 | 5522 ft | 227 kts | 175° |
| 2026-04-27 04:42 | 47.75941 | 7.49187 | 5522 ft | 227 kts | 190° |
| 2026-04-27 04:42 | 47.74435 | 7.48485 | 5524 ft | 228 kts | 205° |
| 2026-04-27 04:42 | 47.73101 | 7.47220 | 5524 ft | 228 kts | 221° |
| 2026-04-27 04:43 | 47.72036 | 7.45482 | 5524 ft | 228 kts | 236° |
| 2026-04-27 04:43 | 47.71236 | 7.43459 | 5523 ft | 227 kts | 243° |
| 2026-04-27 04:43 | 47.70536 | 7.41348 | 5523 ft | 227 kts | 245° |
| 2026-04-27 04:43 | 47.69869 | 7.39225 | 5524 ft | 227 kts | 245° |
| 2026-04-27 04:44 | 47.69206 | 7.37094 | 5521 ft | 227 kts | 245° |
| 2026-04-27 04:44 | 47.68539 | 7.34965 | 5524 ft | 227 kts | 245° |
| 2026-04-27 04:44 | 47.67865 | 7.32834 | 5520 ft | 228 kts | 245° |
| 2026-04-27 04:44 | 47.67309 | 7.30643 | 5522 ft | 227 kts | 257° |
| 2026-04-27 04:45 | 47.67109 | 7.28325 | 5521 ft | 227 kts | 271° |
| 2026-04-27 04:45 | 47.67310 | 7.26013 | 5522 ft | 226 kts | 287° |
| 2026-04-27 04:45 | 47.67906 | 7.23871 | 5519 ft | 225 kts | 302° |
| 2026-04-27 04:45 | 47.68851 | 7.22033 | 5521 ft | 224 kts | 317° |
| 2026-04-27 04:46 | 47.70072 | 7.20623 | 5520 ft | 222 kts | 332° |
| 2026-04-27 04:46 | 47.71488 | 7.19726 | 5519 ft | 221 kts | 346° |
| 2026-04-27 04:46 | 47.73005 | 7.19396 | 5519 ft | 220 kts | 1° |
| 2026-04-27 04:46 | 47.74517 | 7.19643 | 5518 ft | 219 kts | 15° |
| 2026-04-27 04:47 | 47.75919 | 7.20438 | 5518 ft | 218 kts | 30° |
| 2026-04-27 04:47 | 47.77154 | 7.21741 | 5519 ft | 218 kts | 44° |
| 2026-04-27 04:47 | 47.78125 | 7.23461 | 5518 ft | 218 kts | 57° |
| 2026-04-27 04:47 | 47.78875 | 7.25428 | 5522 ft | 219 kts | 63° |
| 2026-04-27 04:48 | 47.79541 | 7.27464 | 5520 ft | 219 kts | 65° |
| 2026-04-27 04:48 | 47.80184 | 7.29520 | 5521 ft | 219 kts | 65° |
| 2026-04-27 04:48 | 47.80826 | 7.31577 | 5520 ft | 219 kts | 65° |
| 2026-04-27 04:48 | 47.81470 | 7.33633 | 5522 ft | 219 kts | 64° |
| 2026-04-27 04:49 | 47.82118 | 7.35690 | 5520 ft | 219 kts | 64° |
| 2026-04-27 04:49 | 47.82628 | 7.37818 | 5519 ft | 219 kts | 84° |
| 2026-04-27 04:49 | 47.82403 | 7.40040 | 5517 ft | 221 kts | 115° |
| 2026-04-27 04:49 | 47.81418 | 7.41760 | 5521 ft | 222 kts | 148° |
| 2026-04-27 04:50 | 47.79958 | 7.42444 | 5523 ft | 224 kts | 180° |
| 2026-04-27 04:50 | 47.78469 | 7.41853 | 5524 ft | 225 kts | 213° |
| 2026-04-27 04:50 | 47.77422 | 7.40162 | 5523 ft | 225 kts | 244° |
| 2026-04-27 04:50 | 47.76751 | 7.38057 | 5524 ft | 226 kts | 245° |
| 2026-04-27 04:51 | 47.76079 | 7.35938 | 5522 ft | 227 kts | 245° |
| 2026-04-27 04:51 | 47.75403 | 7.33820 | 5523 ft | 227 kts | 245° |
| 2026-04-27 04:51 | 47.74737 | 7.31698 | 5519 ft | 227 kts | 250° |
| 2026-04-27 04:51 | 47.74568 | 7.29415 | 5520 ft | 224 kts | 283° |
| 2026-04-27 04:52 | 47.75242 | 7.27372 | 5520 ft | 222 kts | 315° |
| 2026-04-27 04:52 | 47.76531 | 7.26187 | 5521 ft | 220 kts | 347° |
| 2026-04-27 04:52 | 47.78034 | 7.26194 | 5520 ft | 218 kts | 19° |
| 2026-04-27 04:52 | 47.79304 | 7.27366 | 5518 ft | 217 kts | 49° |
| 2026-04-27 04:53 | 47.80071 | 7.29294 | 5523 ft | 219 kts | 64° |
| 2026-04-27 04:53 | 47.80724 | 7.31341 | 5517 ft | 219 kts | 65° |
| 2026-04-27 04:53 | 47.81375 | 7.33391 | 5523 ft | 219 kts | 64° |
| 2026-04-27 04:53 | 47.82028 | 7.35443 | 5519 ft | 220 kts | 64° |
| 2026-04-27 04:54 | 47.82592 | 7.37545 | 5513 ft | 220 kts | 80° |
| 2026-04-27 04:54 | 47.82470 | 7.39785 | 5517 ft | 221 kts | 111° |
| 2026-04-27 04:54 | 47.81568 | 7.41604 | 5521 ft | 222 kts | 144° |
| 2026-04-27 04:54 | 47.80139 | 7.42429 | 5522 ft | 223 kts | 176° |
| 2026-04-27 04:55 | 47.78630 | 7.41986 | 5520 ft | 224 kts | 209° |
| 2026-04-27 04:55 | 47.77516 | 7.40404 | 5522 ft | 224 kts | 242° |
| 2026-04-27 04:55 | 47.76836 | 7.38307 | 5524 ft | 226 kts | 245° |
| 2026-04-27 04:55 | 47.76163 | 7.36193 | 5523 ft | 226 kts | 245° |
| 2026-04-27 04:56 | 47.75485 | 7.34079 | 5522 ft | 226 kts | 245° |
| 2026-04-27 04:56 | 47.74811 | 7.31964 | 5519 ft | 226 kts | 247° |
| 2026-04-27 04:56 | 47.74537 | 7.29698 | 5517 ft | 224 kts | 278° |
| 2026-04-27 04:56 | 47.75115 | 7.27587 | 5518 ft | 222 kts | 311° |
| 2026-04-27 04:57 | 47.76344 | 7.26272 | 5521 ft | 220 kts | 343° |
| 2026-04-27 04:57 | 47.77843 | 7.26114 | 5520 ft | 217 kts | 14° |
| 2026-04-27 04:57 | 47.79160 | 7.27137 | 5521 ft | 216 kts | 45° |
| 2026-04-27 04:57 | 47.79981 | 7.28999 | 5524 ft | 217 kts | 64° |
| 2026-04-27 04:58 | 47.80633 | 7.31036 | 5520 ft | 218 kts | 64° |
| 2026-04-27 04:58 | 47.81280 | 7.33080 | 5520 ft | 218 kts | 64° |
| 2026-04-27 04:58 | 47.81927 | 7.35125 | 5521 ft | 219 kts | 64° |
| 2026-04-27 04:58 | 47.82535 | 7.37200 | 5513 ft | 219 kts | 75° |
| 2026-04-27 04:59 | 47.82539 | 7.39435 | 5517 ft | 219 kts | 107° |
| 2026-04-27 04:59 | 47.81745 | 7.41346 | 5520 ft | 221 kts | 139° |
| 2026-04-27 04:59 | 47.80375 | 7.42332 | 5523 ft | 222 kts | 172° |
| 2026-04-27 04:59 | 47.78858 | 7.42072 | 5520 ft | 223 kts | 205° |
| 2026-04-27 05:00 | 47.77669 | 7.40638 | 5520 ft | 223 kts | 238° |
| 2026-04-27 05:00 | 47.76962 | 7.38571 | 5526 ft | 225 kts | 245° |
| 2026-04-27 05:00 | 47.76301 | 7.36494 | 5523 ft | 225 kts | 245° |
| 2026-04-27 05:00 | 47.75623 | 7.34364 | 5522 ft | 225 kts | 245° |
| 2026-04-27 05:01 | 47.74957 | 7.32286 | 5519 ft | 225 kts | 245° |
| 2026-04-27 05:01 | 47.74575 | 7.30059 | 5516 ft | 223 kts | 274° |
| 2026-04-27 05:01 | 47.75034 | 7.27905 | 5519 ft | 221 kts | 307° |
| 2026-04-27 05:01 | 47.76189 | 7.26456 | 5520 ft | 219 kts | 339° |
| 2026-04-27 05:02 | 47.77668 | 7.26132 | 5519 ft | 217 kts | 10° |
| 2026-04-27 05:02 | 47.79034 | 7.27009 | 5521 ft | 216 kts | 41° |
| 2026-04-27 05:02 | 47.80563 | 7.30830 | 5521 ft | 218 kts | 64° |
| 2026-04-27 05:03 | 47.81213 | 7.32877 | 5520 ft | 218 kts | 64° |
| 2026-04-27 05:03 | 47.81862 | 7.34919 | 5525 ft | 218 kts | 64° |
| 2026-04-27 05:03 | 47.82490 | 7.36981 | 5515 ft | 219 kts | 72° |
| 2026-04-27 05:03 | 47.82573 | 7.39209 | 5511 ft | 219 kts | 103° |
| 2026-04-27 05:04 | 47.81853 | 7.41182 | 5520 ft | 221 kts | 136° |
| 2026-04-27 05:04 | 47.80525 | 7.42290 | 5522 ft | 222 kts | 168° |
| 2026-04-27 05:04 | 47.78979 | 7.42153 | 5522 ft | 223 kts | 202° |
| 2026-04-27 05:04 | 47.77755 | 7.40820 | 5528 ft | 224 kts | 235° |
| 2026-04-27 05:05 | 47.77029 | 7.38781 | 5524 ft | 225 kts | 245° |
| 2026-04-27 05:05 | 47.76359 | 7.36673 | 5523 ft | 225 kts | 245° |
| 2026-04-27 05:05 | 47.75680 | 7.34542 | 5522 ft | 225 kts | 245° |
| 2026-04-27 05:05 | 47.75016 | 7.32465 | 5523 ft | 226 kts | 245° |
| 2026-04-27 05:06 | 47.74580 | 7.30253 | 5515 ft | 224 kts | 271° |
| 2026-04-27 05:06 | 47.74973 | 7.28066 | 5520 ft | 221 kts | 304° |
| 2026-04-27 05:06 | 47.76080 | 7.26535 | 5519 ft | 219 kts | 336° |
| 2026-04-27 05:06 | 47.77546 | 7.26108 | 5519 ft | 217 kts | 7° |
| 2026-04-27 05:07 | 47.78935 | 7.26894 | 5518 ft | 216 kts | 39° |
| 2026-04-27 05:07 | 47.79851 | 7.28640 | 5525 ft | 217 kts | 64° |
| 2026-04-27 05:07 | 47.80509 | 7.30673 | 5522 ft | 218 kts | 64° |
| 2026-04-27 05:07 | 47.81157 | 7.32711 | 5520 ft | 218 kts | 64° |
| 2026-04-27 05:08 | 47.81809 | 7.34759 | 5519 ft | 218 kts | 64° |
| 2026-04-27 05:08 | 47.82446 | 7.36806 | 5518 ft | 219 kts | 69° |
| 2026-04-27 05:08 | 47.82603 | 7.39028 | 5515 ft | 219 kts | 101° |
| 2026-04-27 05:08 | 47.81947 | 7.41050 | 5519 ft | 220 kts | 133° |
| 2026-04-27 05:09 | 47.80659 | 7.42243 | 5520 ft | 222 kts | 166° |
| 2026-04-27 05:09 | 47.79128 | 7.42221 | 5518 ft | 223 kts | 199° |
| 2026-04-27 05:09 | 47.77845 | 7.40977 | 5518 ft | 224 kts | 232° |
| 2026-04-27 05:09 | 47.77089 | 7.38965 | 5525 ft | 225 kts | 245° |
| 2026-04-27 05:10 | 47.76422 | 7.36860 | 5523 ft | 225 kts | 245° |
| 2026-04-27 05:10 | 47.75754 | 7.34756 | 5522 ft | 225 kts | 245° |
| 2026-04-27 05:10 | 47.75082 | 7.32652 | 5522 ft | 226 kts | 245° |
| 2026-04-27 05:10 | 47.74589 | 7.30457 | 5514 ft | 224 kts | 268° |
| 2026-04-27 05:11 | 47.74900 | 7.28232 | 5519 ft | 222 kts | 301° |
| 2026-04-27 05:11 | 47.75959 | 7.26623 | 5520 ft | 219 kts | 334° |
| 2026-04-27 05:11 | 47.77415 | 7.26101 | 5522 ft | 216 kts | 5° |
| 2026-04-27 05:11 | 47.78822 | 7.26783 | 5517 ft | 215 kts | 36° |
| 2026-04-27 05:12 | 47.79785 | 7.28451 | 5523 ft | 215 kts | 63° |
| 2026-04-27 05:12 | 47.80440 | 7.30466 | 5525 ft | 217 kts | 64° |
| 2026-04-27 05:12 | 47.81088 | 7.32495 | 5521 ft | 217 kts | 64° |
| 2026-04-27 05:12 | 47.81733 | 7.34525 | 5521 ft | 217 kts | 64° |
| 2026-04-27 05:13 | 47.82374 | 7.36558 | 5520 ft | 217 kts | 67° |
| 2026-04-27 05:13 | 47.82617 | 7.38756 | 5516 ft | 218 kts | 97° |
| 2026-04-27 05:13 | 47.82050 | 7.40819 | 5521 ft | 219 kts | 129° |
| 2026-04-27 05:13 | 47.80824 | 7.42119 | 5521 ft | 221 kts | 162° |
| 2026-04-27 05:14 | 47.79305 | 7.42227 | 5520 ft | 222 kts | 195° |
| 2026-04-27 05:14 | 47.77986 | 7.41091 | 5523 ft | 223 kts | 229° |
| 2026-04-27 05:14 | 47.77200 | 7.39120 | 5525 ft | 223 kts | 245° |
| 2026-04-27 05:14 | 47.76538 | 7.37028 | 5526 ft | 224 kts | 245° |
| 2026-04-27 05:15 | 47.75872 | 7.34933 | 5525 ft | 224 kts | 245° |
| 2026-04-27 05:15 | 47.75202 | 7.32833 | 5522 ft | 224 kts | 245° |
| 2026-04-27 05:15 | 47.74667 | 7.30670 | 5516 ft | 223 kts | 265° |
| 2026-04-27 05:15 | 47.74910 | 7.28436 | 5521 ft | 221 kts | 298° |
| 2026-04-27 05:16 | 47.75919 | 7.26764 | 5523 ft | 219 kts | 331° |
| 2026-04-27 05:16 | 47.77360 | 7.26154 | 5522 ft | 217 kts | 3° |
| 2026-04-27 05:16 | 47.78786 | 7.26771 | 5519 ft | 215 kts | 35° |
| 2026-04-27 05:16 | 47.79777 | 7.28404 | 5521 ft | 215 kts | 63° |
| 2026-04-27 05:17 | 47.80432 | 7.30417 | 5522 ft | 217 kts | 65° |
| 2026-04-27 05:17 | 47.81077 | 7.32440 | 5522 ft | 217 kts | 64° |
| 2026-04-27 05:17 | 47.81722 | 7.34470 | 5521 ft | 217 kts | 64° |
| 2026-04-27 05:17 | 47.82365 | 7.36504 | 5522 ft | 217 kts | 66° |
| 2026-04-27 05:18 | 47.82629 | 7.38683 | 5518 ft | 217 kts | 97° |
| 2026-04-27 05:18 | 47.82080 | 7.40752 | 5519 ft | 219 kts | 129° |
| 2026-04-27 05:18 | 47.80861 | 7.42080 | 5523 ft | 220 kts | 161° |
| 2026-04-27 05:18 | 47.79347 | 7.42222 | 5521 ft | 222 kts | 194° |
| 2026-04-27 05:19 | 47.78017 | 7.41107 | 5522 ft | 223 kts | 228° |
| 2026-04-27 05:19 | 47.77224 | 7.39131 | 5526 ft | 224 kts | 245° |
| 2026-04-27 05:19 | 47.76558 | 7.37031 | 5523 ft | 225 kts | 245° |
| 2026-04-27 05:19 | 47.75889 | 7.34936 | 5523 ft | 225 kts | 245° |
| 2026-04-27 05:20 | 47.75218 | 7.32837 | 5523 ft | 225 kts | 245° |
| 2026-04-27 05:20 | 47.74686 | 7.30669 | 5515 ft | 224 kts | 265° |
| 2026-04-27 05:20 | 47.74935 | 7.28437 | 5516 ft | 221 kts | 299° |
| 2026-04-27 05:20 | 47.75949 | 7.26766 | 5522 ft | 219 kts | 331° |
| 2026-04-27 05:21 | 47.77370 | 7.26170 | 5518 ft | 217 kts | 3° |
| 2026-04-27 05:21 | 47.78796 | 7.26787 | 5518 ft | 215 kts | 35° |
| 2026-04-27 05:21 | 47.79783 | 7.28419 | 5525 ft | 215 kts | 63° |
| 2026-04-27 05:21 | 47.80432 | 7.30432 | 5522 ft | 216 kts | 65° |
| 2026-04-27 05:22 | 47.81077 | 7.32456 | 5524 ft | 217 kts | 65° |
| 2026-04-27 05:22 | 47.81721 | 7.34483 | 5522 ft | 217 kts | 64° |
| 2026-04-27 05:22 | 47.82364 | 7.36516 | 5521 ft | 217 kts | 67° |
| 2026-04-27 05:22 | 47.82619 | 7.38705 | 5515 ft | 217 kts | 97° |
| 2026-04-27 05:23 | 47.82065 | 7.40768 | 5521 ft | 219 kts | 129° |
| 2026-04-27 05:23 | 47.81296 | 7.41767 | 5519 ft | 220 kts | 151° |
| 2026-04-27 05:23 | 47.79819 | 7.42306 | 5522 ft | 222 kts | 184° |
| 2026-04-27 05:23 | 47.78379 | 7.41561 | 5522 ft | 223 kts | 218° |
| 2026-04-27 05:24 | 47.77429 | 7.39773 | 5527 ft | 223 kts | 245° |
| 2026-04-27 05:24 | 47.76765 | 7.37674 | 5523 ft | 225 kts | 245° |
| 2026-04-27 05:24 | 47.76096 | 7.35573 | 5522 ft | 225 kts | 245° |
| 2026-04-27 05:24 | 47.75424 | 7.33473 | 5521 ft | 225 kts | 245° |
| 2026-04-27 05:25 | 47.74785 | 7.31346 | 5516 ft | 225 kts | 255° |
| 2026-04-27 05:25 | 47.74773 | 7.29063 | 5520 ft | 223 kts | 289° |
| 2026-04-27 05:25 | 47.75590 | 7.27159 | 5521 ft | 220 kts | 322° |
| 2026-04-27 05:25 | 47.76949 | 7.26215 | 5520 ft | 217 kts | 354° |
| 2026-04-27 05:26 | 47.78420 | 7.26491 | 5520 ft | 214 kts | 26° |
| 2026-04-27 05:26 | 47.79562 | 7.27868 | 5520 ft | 214 kts | 57° |
| 2026-04-27 05:26 | 47.80245 | 7.29832 | 5522 ft | 215 kts | 65° |
| 2026-04-27 05:26 | 47.80884 | 7.31844 | 5521 ft | 215 kts | 65° |
| 2026-04-27 05:27 | 47.81525 | 7.33858 | 5522 ft | 215 kts | 64° |
| 2026-04-27 05:27 | 47.82166 | 7.35872 | 5523 ft | 215 kts | 64° |
| 2026-04-27 05:27 | 47.82626 | 7.37952 | 5517 ft | 215 kts | 86° |
| 2026-04-27 05:27 | 47.82323 | 7.40140 | 5519 ft | 217 kts | 119° |
| 2026-04-27 05:28 | 47.81279 | 7.41732 | 5522 ft | 219 kts | 152° |
| 2026-04-27 05:28 | 47.79825 | 7.42225 | 5523 ft | 221 kts | 185° |
| 2026-04-27 05:28 | 47.78398 | 7.41447 | 5523 ft | 222 kts | 219° |
| 2026-04-27 05:28 | 47.77475 | 7.39635 | 5526 ft | 223 kts | 245° |
| 2026-04-27 05:29 | 47.76814 | 7.37538 | 5525 ft | 224 kts | 245° |
| 2026-04-27 05:29 | 47.76147 | 7.35439 | 5523 ft | 225 kts | 245° |
| 2026-04-27 05:29 | 47.75477 | 7.33342 | 5521 ft | 225 kts | 245° |
| 2026-04-27 05:29 | 47.74854 | 7.31219 | 5514 ft | 224 kts | 257° |
| 2026-04-27 05:30 | 47.74897 | 7.28950 | 5520 ft | 222 kts | 291° |
| 2026-04-27 05:30 | 47.75771 | 7.27120 | 5520 ft | 219 kts | 325° |
| 2026-04-27 05:30 | 47.77159 | 7.26298 | 5521 ft | 216 kts | 358° |
| 2026-04-27 05:30 | 47.78611 | 7.26709 | 5520 ft | 214 kts | 30° |
| 2026-04-27 05:31 | 47.79684 | 7.28198 | 5522 ft | 213 kts | 61° |
| 2026-04-27 05:31 | 47.80343 | 7.30183 | 5521 ft | 215 kts | 65° |
| 2026-04-27 05:31 | 47.80985 | 7.32193 | 5520 ft | 215 kts | 64° |
| 2026-04-27 05:31 | 47.81626 | 7.34207 | 5522 ft | 215 kts | 64° |
| 2026-04-27 05:32 | 47.82268 | 7.36217 | 5522 ft | 215 kts | 65° |
| 2026-04-27 05:32 | 47.82629 | 7.38355 | 5518 ft | 215 kts | 92° |
| 2026-04-27 05:32 | 47.82187 | 7.40459 | 5521 ft | 217 kts | 124° |
| 2026-04-27 05:32 | 47.81042 | 7.41890 | 5521 ft | 219 kts | 157° |
| 2026-04-27 05:33 | 47.79545 | 7.42162 | 5522 ft | 221 kts | 191° |
| 2026-04-27 05:33 | 47.78179 | 7.41154 | 5522 ft | 223 kts | 225° |
| 2026-04-27 05:33 | 47.77354 | 7.39222 | 5528 ft | 224 kts | 246° |
| 2026-04-27 05:33 | 47.76697 | 7.37123 | 5524 ft | 225 kts | 245° |
| 2026-04-27 05:34 | 47.76027 | 7.35025 | 5524 ft | 225 kts | 244° |
| 2026-04-27 05:34 | 47.75353 | 7.32929 | 5524 ft | 225 kts | 244° |
| 2026-04-27 05:34 | 47.74798 | 7.30767 | 5516 ft | 224 kts | 264° |
| 2026-04-27 05:34 | 47.75026 | 7.28527 | 5522 ft | 222 kts | 299° |
| 2026-04-27 05:35 | 47.76036 | 7.26862 | 5520 ft | 219 kts | 332° |
| 2026-04-27 05:35 | 47.77478 | 7.26281 | 5521 ft | 216 kts | 4° |
| 2026-04-27 05:35 | 47.78884 | 7.26929 | 5523 ft | 214 kts | 36° |
| 2026-04-27 05:35 | 47.79841 | 7.28586 | 5523 ft | 214 kts | 64° |
| 2026-04-27 05:36 | 47.80482 | 7.30588 | 5522 ft | 215 kts | 65° |
| 2026-04-27 05:36 | 47.81120 | 7.32600 | 5524 ft | 215 kts | 65° |
| 2026-04-27 05:36 | 47.81760 | 7.34613 | 5524 ft | 215 kts | 65° |
| 2026-04-27 05:36 | 47.82393 | 7.36627 | 5522 ft | 215 kts | 68° |
| 2026-04-27 05:37 | 47.82605 | 7.38803 | 5520 ft | 215 kts | 99° |
| 2026-04-27 05:37 | 47.82005 | 7.40816 | 5524 ft | 217 kts | 131° |
| 2026-04-27 05:37 | 47.80754 | 7.42033 | 5523 ft | 219 kts | 164° |
| 2026-04-27 05:37 | 47.79239 | 7.42038 | 5523 ft | 222 kts | 198° |
| 2026-04-27 05:38 | 47.77964 | 7.40793 | 5524 ft | 223 kts | 232° |
| 2026-04-27 05:38 | 47.77219 | 7.38774 | 5525 ft | 225 kts | 245° |
| 2026-04-27 05:38 | 47.76553 | 7.36671 | 5523 ft | 225 kts | 245° |
| 2026-04-27 05:38 | 47.75881 | 7.34563 | 5522 ft | 225 kts | 245° |
| 2026-04-27 05:39 | 47.75207 | 7.32461 | 5524 ft | 225 kts | 245° |
| 2026-04-27 05:39 | 47.74781 | 7.30248 | 5518 ft | 224 kts | 272° |
| 2026-04-27 05:39 | 47.75202 | 7.28070 | 5521 ft | 221 kts | 306° |
| 2026-04-27 05:39 | 47.76349 | 7.26610 | 5522 ft | 218 kts | 340° |
| 2026-04-27 05:40 | 47.77822 | 7.26326 | 5523 ft | 215 kts | 12° |
| 2026-04-27 05:40 | 47.79153 | 7.27241 | 5521 ft | 212 kts | 43° |
| 2026-04-27 05:40 | 47.79985 | 7.29026 | 5527 ft | 212 kts | 64° |
| 2026-04-27 05:40 | 47.80624 | 7.31017 | 5523 ft | 213 kts | 65° |
| 2026-04-27 05:41 | 47.81259 | 7.33015 | 5523 ft | 214 kts | 65° |
| 2026-04-27 05:41 | 47.81894 | 7.35012 | 5522 ft | 214 kts | 64° |
| 2026-04-27 05:41 | 47.82501 | 7.37026 | 5519 ft | 214 kts | 73° |
| 2026-04-27 05:41 | 47.82551 | 7.39206 | 5521 ft | 214 kts | 105° |
| 2026-04-27 05:42 | 47.81799 | 7.41098 | 5524 ft | 216 kts | 138° |
| 2026-04-27 05:42 | 47.80460 | 7.42079 | 5525 ft | 219 kts | 171° |
| 2026-04-27 05:42 | 47.78961 | 7.41801 | 5524 ft | 221 kts | 205° |
| 2026-04-27 05:42 | 47.77810 | 7.40309 | 5525 ft | 222 kts | 240° |
| 2026-04-27 05:43 | 47.77137 | 7.38237 | 5527 ft | 224 kts | 245° |
| 2026-04-27 05:43 | 47.76471 | 7.36130 | 5525 ft | 225 kts | 245° |
| 2026-04-27 05:43 | 47.75803 | 7.34038 | 5524 ft | 225 kts | 244° |
| 2026-04-27 05:43 | 47.75133 | 7.31938 | 5523 ft | 225 kts | 247° |
| 2026-04-27 05:44 | 47.74892 | 7.29715 | 5519 ft | 223 kts | 281° |
| 2026-04-27 05:44 | 47.75538 | 7.27650 | 5523 ft | 220 kts | 315° |
| 2026-04-27 05:44 | 47.76819 | 7.26497 | 5522 ft | 216 kts | 349° |
| 2026-04-27 05:44 | 47.78275 | 7.26565 | 5522 ft | 213 kts | 21° |
| 2026-04-27 05:45 | 47.79484 | 7.27789 | 5521 ft | 212 kts | 53° |
| 2026-04-27 05:45 | 47.80197 | 7.29698 | 5524 ft | 213 kts | 65° |
| 2026-04-27 05:45 | 47.80833 | 7.31688 | 5522 ft | 213 kts | 65° |
| 2026-04-27 05:45 | 47.81468 | 7.33684 | 5524 ft | 213 kts | 65° |
| 2026-04-27 05:46 | 47.82104 | 7.35680 | 5522 ft | 213 kts | 64° |
| 2026-04-27 05:46 | 47.82606 | 7.37744 | 5516 ft | 213 kts | 84° |
| 2026-04-27 05:46 | 47.82379 | 7.39897 | 5521 ft | 215 kts | 116° |
| 2026-04-27 05:46 | 47.81392 | 7.41538 | 5525 ft | 217 kts | 149° |
| 2026-04-27 05:47 | 47.79944 | 7.42111 | 5524 ft | 220 kts | 182° |
| 2026-04-27 05:47 | 47.78508 | 7.41387 | 5525 ft | 222 kts | 217° |
| 2026-04-27 05:47 | 47.77566 | 7.39591 | 5528 ft | 223 kts | 245° |
| 2026-04-27 05:47 | 47.76908 | 7.37490 | 5525 ft | 225 kts | 245° |
| 2026-04-27 05:48 | 47.76241 | 7.35389 | 5524 ft | 225 kts | 245° |
| 2026-04-27 05:48 | 47.75570 | 7.33292 | 5524 ft | 225 kts | 244° |
| 2026-04-27 05:48 | 47.74959 | 7.31156 | 5516 ft | 225 kts | 258° |
| 2026-04-27 05:48 | 47.75056 | 7.28886 | 5524 ft | 222 kts | 294° |
| 2026-04-27 05:49 | 47.75983 | 7.27114 | 5522 ft | 219 kts | 328° |
| 2026-04-27 05:49 | 47.77390 | 7.26402 | 5524 ft | 215 kts | 1° |
| 2026-04-27 05:49 | 47.78812 | 7.26934 | 5522 ft | 213 kts | 34° |
| 2026-04-27 05:49 | 47.79808 | 7.28511 | 5523 ft | 211 kts | 63° |
| 2026-04-27 05:50 | 47.80447 | 7.30485 | 5522 ft | 213 kts | 65° |
| 2026-04-27 05:50 | 47.81082 | 7.32481 | 5524 ft | 213 kts | 65° |
| 2026-04-27 05:50 | 47.81716 | 7.34471 | 5526 ft | 213 kts | 65° |
| 2026-04-27 05:50 | 47.82348 | 7.36464 | 5524 ft | 213 kts | 66° |
| 2026-04-27 05:51 | 47.82612 | 7.38607 | 5522 ft | 213 kts | 96° |
| 2026-04-27 05:51 | 47.82071 | 7.40634 | 5522 ft | 215 kts | 129° |
| 2026-04-27 05:51 | 47.80857 | 7.41903 | 5524 ft | 218 kts | 162° |
| 2026-04-27 05:51 | 47.79350 | 7.41958 | 5524 ft | 221 kts | 197° |
| 2026-04-27 05:52 | 47.78065 | 7.40744 | 5525 ft | 223 kts | 231° |
| 2026-04-27 05:52 | 47.77320 | 7.38727 | 5528 ft | 225 kts | 245° |
| 2026-04-27 05:52 | 47.76656 | 7.36623 | 5526 ft | 225 kts | 245° |
| 2026-04-27 05:52 | 47.75984 | 7.34519 | 5525 ft | 225 kts | 244° |
| 2026-04-27 05:53 | 47.75309 | 7.32414 | 5524 ft | 225 kts | 244° |
| 2026-04-27 05:53 | 47.74905 | 7.30195 | 5517 ft | 224 kts | 274° |
| 2026-04-27 05:53 | 47.75381 | 7.28038 | 5521 ft | 221 kts | 309° |
| 2026-04-27 05:53 | 47.76565 | 7.26669 | 5522 ft | 217 kts | 343° |
| 2026-04-27 05:54 | 47.78039 | 7.26498 | 5522 ft | 214 kts | 15° |
| 2026-04-27 05:54 | 47.79322 | 7.27527 | 5522 ft | 211 kts | 47° |
| 2026-04-27 05:54 | 47.80091 | 7.29365 | 5523 ft | 211 kts | 65° |
| 2026-04-27 05:54 | 47.80719 | 7.31335 | 5523 ft | 211 kts | 65° |
| 2026-04-27 05:55 | 47.81349 | 7.33315 | 5525 ft | 212 kts | 65° |
| 2026-04-27 05:55 | 47.81979 | 7.35295 | 5524 ft | 212 kts | 65° |
| 2026-04-27 05:55 | 47.82548 | 7.37309 | 5520 ft | 212 kts | 78° |
| 2026-04-27 05:55 | 47.82479 | 7.39473 | 5525 ft | 212 kts | 110° |
| 2026-04-27 05:56 | 47.81629 | 7.41244 | 5526 ft | 215 kts | 142° |
| 2026-04-27 05:56 | 47.80239 | 7.42035 | 5525 ft | 218 kts | 177° |
| 2026-04-27 05:56 | 47.78774 | 7.41520 | 5526 ft | 221 kts | 212° |
| 2026-04-27 05:56 | 47.77746 | 7.39851 | 5525 ft | 223 kts | 244° |
| 2026-04-27 05:57 | 47.77086 | 7.37756 | 5526 ft | 224 kts | 245° |
| 2026-04-27 05:57 | 47.76421 | 7.35660 | 5527 ft | 225 kts | 245° |
| 2026-04-27 05:57 | 47.75753 | 7.33565 | 5524 ft | 225 kts | 244° |
| 2026-04-27 05:57 | 47.75110 | 7.31445 | 5517 ft | 225 kts | 253° |
| 2026-04-27 05:58 | 47.75098 | 7.29174 | 5518 ft | 222 kts | 290° |
| 2026-04-27 05:58 | 47.75947 | 7.27318 | 5521 ft | 218 kts | 325° |
| 2026-04-27 05:58 | 47.77322 | 7.26494 | 5524 ft | 214 kts | 359° |
| 2026-04-27 05:58 | 47.78749 | 7.26929 | 5522 ft | 211 kts | 32° |
| 2026-04-27 05:59 | 47.79779 | 7.28434 | 5522 ft | 209 kts | 62° |
| 2026-04-27 05:59 | 47.80417 | 7.30386 | 5525 ft | 211 kts | 65° |
| 2026-04-27 05:59 | 47.81044 | 7.32358 | 5525 ft | 211 kts | 65° |
| 2026-04-27 05:59 | 47.81673 | 7.34338 | 5521 ft | 211 kts | 65° |
| 2026-04-27 06:00 | 47.82618 | 7.38424 | 5521 ft | 211 kts | 94° |
| 2026-04-27 06:00 | 47.82134 | 7.40466 | 5526 ft | 213 kts | 127° |
| 2026-04-27 06:00 | 47.80957 | 7.41794 | 5524 ft | 217 kts | 160° |
| 2026-04-27 06:01 | 47.79465 | 7.41913 | 5528 ft | 220 kts | 195° |
| 2026-04-27 06:01 | 47.78169 | 7.40735 | 5525 ft | 223 kts | 230° |
| 2026-04-27 06:01 | 47.77409 | 7.38728 | 5527 ft | 224 kts | 245° |
| 2026-04-27 06:01 | 47.76747 | 7.36626 | 5526 ft | 225 kts | 245° |
| 2026-04-27 06:02 | 47.76080 | 7.34524 | 5523 ft | 225 kts | 244° |
| 2026-04-27 06:02 | 47.75406 | 7.32425 | 5523 ft | 225 kts | 244° |
| 2026-04-27 06:02 | 47.75009 | 7.30201 | 5518 ft | 223 kts | 275° |
| 2026-04-27 06:02 | 47.75505 | 7.28065 | 5523 ft | 220 kts | 310° |
| 2026-04-27 06:03 | 47.76706 | 7.26739 | 5521 ft | 216 kts | 345° |
| 2026-04-27 06:03 | 47.78168 | 7.26635 | 5521 ft | 212 kts | 18° |
| 2026-04-27 06:03 | 47.79047 | 7.27238 | 5527 ft | 210 kts | 39° |
| 2026-04-27 06:03 | 47.79940 | 7.28914 | 5521 ft | 209 kts | 65° |
| 2026-04-27 06:04 | 47.80566 | 7.30883 | 5520 ft | 210 kts | 65° |
| 2026-04-27 06:04 | 47.81191 | 7.32845 | 5535 ft | 211 kts | 65° |
| 2026-04-27 06:04 | 47.81660 | 7.34308 | 5535 ft | 211 kts | 64° |
| 2026-04-27 06:04 | 47.82294 | 7.36282 | 5543 ft | 211 kts | 65° |
| 2026-04-27 06:05 | 47.82625 | 7.38376 | 5534 ft | 211 kts | 93° |
| 2026-04-27 06:05 | 47.82152 | 7.40419 | 5537 ft | 213 kts | 126° |
| 2026-04-27 06:05 | 47.80978 | 7.41751 | 5537 ft | 217 kts | 160° |
| 2026-04-27 06:05 | 47.79481 | 7.41890 | 5540 ft | 221 kts | 194° |
| 2026-04-27 06:06 | 47.78185 | 7.40717 | 5540 ft | 223 kts | 231° |
| 2026-04-27 06:06 | 47.77439 | 7.38698 | 5541 ft | 225 kts | 245° |
| 2026-04-27 06:06 | 47.76775 | 7.36590 | 5543 ft | 225 kts | 245° |
| 2026-04-27 06:06 | 47.76102 | 7.34487 | 5539 ft | 225 kts | 244° |
| 2026-04-27 06:07 | 47.75429 | 7.32385 | 5541 ft | 225 kts | 245° |
| 2026-04-27 06:07 | 47.75043 | 7.30163 | 5531 ft | 224 kts | 274° |
| 2026-04-27 06:07 | 47.75546 | 7.28031 | 5535 ft | 220 kts | 311° |
| 2026-04-27 06:07 | 47.76761 | 7.26744 | 5534 ft | 216 kts | 346° |
| 2026-04-27 06:08 | 47.78230 | 7.26677 | 5533 ft | 212 kts | 19° |
| 2026-04-27 06:08 | 47.79466 | 7.27792 | 5531 ft | 210 kts | 50° |
| 2026-04-27 06:08 | 47.80194 | 7.29664 | 5536 ft | 211 kts | 65° |
| 2026-04-27 06:08 | 47.80819 | 7.31633 | 5537 ft | 211 kts | 65° |
| 2026-04-27 06:09 | 47.81444 | 7.33608 | 5534 ft | 211 kts | 65° |
| 2026-04-27 06:09 | 47.82065 | 7.35550 | 5531 ft | 210 kts | 64° |
| 2026-04-27 06:09 | 47.82592 | 7.37570 | 5527 ft | 210 kts | 82° |
| 2026-04-27 06:09 | 47.82420 | 7.39699 | 5535 ft | 211 kts | 114° |
| 2026-04-27 06:10 | 47.81484 | 7.41361 | 5537 ft | 214 kts | 147° |
| 2026-04-27 06:10 | 47.80055 | 7.41964 | 5539 ft | 218 kts | 182° |
| 2026-04-27 06:10 | 47.78629 | 7.41260 | 5539 ft | 219 kts | 217° |
| 2026-04-27 06:10 | 47.77708 | 7.39536 | 5545 ft | 212 kts | 245° |
| 2026-04-27 06:11 | 47.77088 | 7.37585 | 5541 ft | 207 kts | 245° |
| 2026-04-27 06:11 | 47.76469 | 7.35668 | 5537 ft | 205 kts | 244° |
| 2026-04-27 06:11 | 47.75812 | 7.33695 | 5547 ft | 219 kts | 244° |
| 2026-04-27 06:11 | 47.75152 | 7.31627 | 5539 ft | 223 kts | 251° |
| 2026-04-27 06:12 | 47.75084 | 7.29371 | 5536 ft | 221 kts | 289° |
| 2026-04-27 06:12 | 47.75888 | 7.27480 | 5536 ft | 218 kts | 323° |
| 2026-04-27 06:12 | 47.77204 | 7.26574 | 5525 ft | 200 kts | 356° |
| 2026-04-27 06:12 | 47.78481 | 7.26859 | 5487 ft | 179 kts | 39° |
| 2026-04-27 06:13 | 47.78873 | 7.28377 | 5037 ft | 171 kts | 126° |
| 2026-04-27 06:13 | 47.77755 | 7.28628 | 3423 ft | 217 kts | 224° |
| 2026-04-27 06:13 | 47.77330 | 7.26433 | 843 ft | 139 kts | 296° |
| 2026-04-27 06:13 | 47.77429 | 7.25823 | 849 ft | 0 kts | 285° |